Time;durP1;ratioP1;P1;durP2;ratioP2;P2;SDS_P1;SDS_P2;PMS_P1;PMS_P2;Temp;Humidity;BMP_temperature;BMP_pressure;BME280_temperature;BME280_humidity;BME280_pressure;Samples;Min_cycle;Max_cycle;Signal;HPM_P1;HPM_P2
2023/08/27 00:01:38;;;;;;;9.23;3.78;;;;;;;27.26;51.13;98716.91;4806317;29;20278;-87
2023/08/27 00:04:03;;;;;;;8.43;3.80;;;;;;;27.26;50.86;98719.59;4806111;29;20618;-87
2023/08/27 00:06:30;;;;;;;10.27;3.95;;;;;;;27.20;51.01;98710.44;4805273;29;20209;-87
2023/08/27 00:08:57;;;;;;;9.17;3.83;;;;;;;27.12;51.05;98710.59;4806043;29;20707;-87
2023/08/27 00:11:23;;;;;;;6.25;4.00;;;;;;;27.07;50.77;98715.72;4806452;29;20205;-87
2023/08/27 00:13:50;;;;;;;8.52;4.00;;;;;;;27.00;50.82;98717.53;4806280;29;20186;-87
2023/08/27 00:16:17;;;;;;;15.10;3.78;;;;;;;26.93;51.55;98719.34;4805860;29;20339;-87
2023/08/27 00:18:42;;;;;;;6.63;3.88;;;;;;;26.92;51.33;98725.75;4790249;29;20667;-87
2023/08/27 00:21:08;;;;;;;7.23;3.80;;;;;;;26.81;52.18;98728.94;4804954;29;20190;-87
2023/08/27 00:23:38;;;;;;;8.10;3.90;;;;;;;26.78;52.17;98726.69;4805888;29;20350;-87
2023/08/27 00:26:05;;;;;;;6.60;3.88;;;;;;;26.77;52.87;98720.47;4806418;29;20178;-87
2023/08/27 00:28:32;;;;;;;6.43;3.97;;;;;;;26.69;52.73;98717.03;4804793;29;20205;-87
2023/08/27 00:31:03;;;;;;;8.77;3.87;;;;;;;26.58;53.20;98715.69;4790176;29;20187;-87
2023/08/27 00:33:30;;;;;;;8.10;4.45;;;;;;;26.55;53.26;98708.00;4805512;29;20613;-87
2023/08/27 00:35:55;;;;;;;8.68;4.40;;;;;;;26.56;53.35;98704.31;4805930;29;20187;-87
2023/08/27 00:38:22;;;;;;;9.03;3.97;;;;;;;26.59;53.47;98705.78;4805605;29;20187;-85
2023/08/27 00:40:49;;;;;;;9.97;4.77;;;;;;;26.63;53.60;98712.41;4806070;29;20190;-87
2023/08/27 00:43:14;;;;;;;8.67;4.20;;;;;;;26.60;53.85;98702.03;4806123;29;20206;-87
2023/08/27 00:45:41;;;;;;;10.60;5.07;;;;;;;26.49;53.91;98702.59;4804766;29;20198;-87
2023/08/27 00:48:06;;;;;;;9.17;4.87;;;;;;;26.34;54.61;98707.16;4805692;29;20350;-87
2023/08/27 00:50:32;;;;;;;8.70;4.60;;;;;;;26.16;55.52;98695.00;4804689;29;20685;-87
2023/08/27 00:52:59;;;;;;;10.57;5.00;;;;;;;26.18;54.81;98698.31;4790235;29;20276;-87
2023/08/27 00:55:25;;;;;;;9.45;4.55;;;;;;;26.18;55.32;98697.47;4790206;29;20263;-87
2023/08/27 00:57:51;;;;;;;9.93;4.10;;;;;;;26.07;56.09;98704.16;4805650;29;20261;-87
2023/08/27 01:00:19;;;;;;;8.33;4.40;;;;;;;26.06;55.55;98707.88;4805869;29;20182;-87
2023/08/27 01:02:47;;;;;;;8.80;4.37;;;;;;;26.02;55.94;98698.50;4806033;29;20194;-87
2023/08/27 01:05:14;;;;;;;8.30;5.03;;;;;;;26.03;55.92;98700.19;4805570;29;20197;-87
2023/08/27 01:08:08;;;;;;;10.73;5.07;;;;;;;25.99;56.63;98698.09;4805680;29;20201;-87
2023/08/27 01:10:51;;;;;;;11.83;5.20;;;;;;;25.90;57.16;98699.19;4803827;29;20208;-87
2023/08/27 01:13:29;;;;;;;11.00;5.40;;;;;;;25.87;56.76;98697.72;4792837;29;20178;-87
2023/08/27 01:16:00;;;;;;;8.93;4.83;;;;;;;25.83;57.30;98696.44;4808973;29;20253;-87
2023/08/27 01:18:26;;;;;;;10.67;5.43;;;;;;;25.85;57.56;98693.56;4808802;29;20194;-87
2023/08/27 01:20:53;;;;;;;11.97;5.17;;;;;;;25.81;57.94;98690.44;4808576;29;20283;-87
2023/08/27 01:23:20;;;;;;;9.20;5.50;;;;;;;25.73;58.41;98687.03;4808565;29;20583;-87
2023/08/27 01:25:50;;;;;;;11.03;5.50;;;;;;;25.69;58.38;98686.56;4808745;29;20193;-86
2023/08/27 01:28:40;;;;;;;9.97;5.57;;;;;;;25.71;58.17;98695.25;4808533;29;20186;-87
2023/08/27 01:31:14;;;;;;;8.27;5.13;;;;;;;25.70;58.68;98693.59;4808427;29;20179;-86
2023/08/27 01:33:42;;;;;;;11.43;5.67;;;;;;;25.64;59.62;98687.13;4808712;29;20333;-87
2023/08/27 01:36:09;;;;;;;11.80;5.73;;;;;;;25.63;59.38;98680.06;4808891;29;20182;-87
2023/08/27 01:38:35;;;;;;;8.63;5.27;;;;;;;25.58;59.03;98671.75;4808608;29;20242;-87
2023/08/27 01:41:00;;;;;;;10.90;5.60;;;;;;;25.51;59.65;98670.00;4808342;29;20269;-87
2023/08/27 01:43:28;;;;;;;10.70;5.93;;;;;;;25.48;60.05;98670.38;4808645;29;20210;-87
2023/08/27 01:45:54;;;;;;;10.80;5.73;;;;;;;25.43;60.13;98670.06;4792504;29;20633;-87
2023/08/27 01:48:20;;;;;;;11.30;6.73;;;;;;;25.45;59.94;98673.38;4808140;29;20657;-87
2023/08/27 01:50:46;;;;;;;13.53;7.07;;;;;;;25.45;60.04;98666.19;4792074;29;20183;-87
2023/08/27 01:53:13;;;;;;;14.63;7.63;;;;;;;25.49;59.20;98669.38;4808046;29;20343;-87
2023/08/27 01:55:40;;;;;;;14.00;7.13;;;;;;;25.49;59.19;98672.06;4807845;29;20618;-87
2023/08/27 01:58:05;;;;;;;12.47;6.60;;;;;;;25.50;58.85;98671.00;4808277;29;20186;-87
2023/08/27 02:00:32;;;;;;;12.67;7.57;;;;;;;25.46;59.14;98670.56;4808216;29;20194;-87
2023/08/27 02:02:58;;;;;;;11.30;6.77;;;;;;;25.45;59.51;98673.38;4807850;29;20243;-87
2023/08/27 02:05:25;;;;;;;13.27;6.90;;;;;;;25.44;59.62;98669.91;4791840;29;20289;-87
2023/08/27 02:07:52;;;;;;;11.50;6.60;;;;;;;25.34;60.31;98668.50;4808062;29;20186;-87
2023/08/27 02:10:19;;;;;;;11.47;6.20;;;;;;;25.29;60.36;98669.03;4807843;29;20211;-87
2023/08/27 02:12:45;;;;;;;11.97;6.90;;;;;;;25.27;60.02;98664.88;4807784;29;20515;-87
2023/08/27 02:15:12;;;;;;;15.20;7.70;;;;;;;25.23;60.38;98664.44;4791794;29;20194;-87
2023/08/27 02:17:38;;;;;;;14.93;7.70;;;;;;;25.19;60.57;98659.59;4807479;29;20231;-87
2023/08/27 02:20:08;;;;;;;13.40;7.47;;;;;;;25.22;60.35;98656.56;4807443;29;20649;-87
2023/08/27 02:22:36;;;;;;;16.93;7.50;;;;;;;25.17;60.58;98653.59;4807436;29;20194;-87
2023/08/27 02:25:02;;;;;;;14.83;7.57;;;;;;;25.16;60.26;98651.97;4807510;29;20182;-87
2023/08/27 02:27:28;;;;;;;16.30;8.80;;;;;;;25.18;60.12;98652.59;4807682;29;20178;-87
2023/08/27 02:29:55;;;;;;;14.57;7.77;;;;;;;25.17;60.04;98653.59;4807275;29;20672;-87
2023/08/27 02:32:23;;;;;;;12.17;6.87;;;;;;;25.14;60.35;98664.69;4807621;29;20182;-88
2023/08/27 02:34:50;;;;;;;11.63;6.57;;;;;;;25.11;60.29;98665.91;4807365;29;20549;-87
2023/08/27 02:37:16;;;;;;;11.03;6.83;;;;;;;25.07;60.24;98659.25;4791331;29;20280;-87
2023/08/27 02:39:41;;;;;;;13.87;6.90;;;;;;;25.07;60.44;98663.78;4807246;29;20194;-87
2023/08/27 02:42:07;;;;;;;11.30;6.20;;;;;;;24.99;60.59;98662.84;4807307;29;20206;-88
2023/08/27 02:44:32;;;;;;;11.83;6.73;;;;;;;;;;4807219;29;20175;-87
2023/08/27 02:46:58;;;;;;;13.83;7.40;;;;;;;;;;4791996;29;20536;-87
2023/08/27 02:49:23;;;;;;;14.17;7.17;;;;;;;24.94;60.86;98669.78;4791418;29;20618;-87
2023/08/27 02:51:48;;;;;;;12.63;7.97;;;;;;;24.94;60.54;98670.63;4807026;29;20179;-87
2023/08/27 02:54:14;;;;;;;13.47;6.60;;;;;;;24.97;60.64;98677.47;4806096;29;20209;-87
2023/08/27 02:56:39;;;;;;;13.83;7.43;;;;;;;24.88;61.48;98676.69;4791311;29;20277;-87
2023/08/27 02:59:05;;;;;;;13.90;7.63;;;;;;;24.88;61.33;98679.38;4806775;29;20190;-87
2023/08/27 03:01:30;;;;;;;14.33;8.27;;;;;;;24.85;61.99;98681.56;4790852;29;20210;-87
2023/08/27 03:03:57;;;;;;;16.57;7.67;;;;;;;24.80;62.49;98679.44;4806733;29;20202;-87
2023/08/27 03:06:23;;;;;;;14.67;6.83;;;;;;;24.82;62.55;98681.94;4807311;29;20183;-87
2023/08/27 03:08:50;;;;;;;12.30;8.57;;;;;;;24.80;62.88;98678.63;4807045;29;20250;-87
2023/08/27 03:11:17;;;;;;;12.43;7.60;;;;;;;24.77;63.65;98678.94;4806692;29;20179;-87
2023/08/27 03:13:44;;;;;;;13.97;7.67;;;;;;;24.76;63.65;98678.13;4806939;29;20328;-88
2023/08/27 03:16:11;;;;;;;12.97;7.80;;;;;;;24.77;63.73;98673.56;4790900;29;20622;-87
2023/08/27 03:18:36;;;;;;;14.20;8.27;;;;;;;24.78;63.69;98677.94;4807084;29;20186;-87
2023/08/27 03:21:03;;;;;;;12.93;7.30;;;;;;;24.75;63.87;98681.81;4790927;29;20676;-87
2023/08/27 03:23:34;;;;;;;13.97;6.77;;;;;;;24.62;64.46;98676.22;4806110;29;20214;-87
2023/08/27 03:26:01;;;;;;;12.57;6.63;;;;;;;24.57;64.94;98673.25;4806823;29;20167;-88
2023/08/27 03:28:27;;;;;;;9.10;6.10;;;;;;;24.57;64.94;98675.94;4806977;29;20641;-87
2023/08/27 03:30:54;;;;;;;9.37;6.43;;;;;;;24.60;65.11;98674.75;4806375;29;20182;-87
2023/08/27 03:33:21;;;;;;;11.73;7.07;;;;;;;24.56;66.10;98673.44;4805892;29;20262;-87
2023/08/27 03:35:56;;;;;;;14.43;6.03;;;;;;;24.55;66.39;98666.41;4806062;29;20185;-87
2023/08/27 03:38:24;;;;;;;15.63;5.30;;;;;;;24.58;65.88;98661.50;4806619;29;20186;-87
2023/08/27 03:40:52;;;;;;;10.47;6.37;;;;;;;24.63;65.50;98656.47;4806266;29;20174;-87
2023/08/27 03:43:18;;;;;;;10.53;6.20;;;;;;;24.65;64.74;98664.31;4806600;29;20669;-87
2023/08/27 03:45:44;;;;;;;8.50;5.43;;;;;;;24.68;64.28;98664.78;4790238;29;20317;-87
2023/08/27 03:48:11;;;;;;;9.17;5.33;;;;;;;24.52;64.57;98666.78;4806245;29;20186;-87
2023/08/27 03:50:38;;;;;;;8.63;5.77;;;;;;;24.45;64.06;98674.69;4805532;29;20335;-88
2023/08/27 03:53:05;;;;;;;10.43;6.67;;;;;;;24.46;63.77;98668.31;4806252;29;20178;-87
2023/08/27 03:55:41;;;;;;;11.07;5.00;;;;;;;24.43;64.10;98668.69;4806151;29;20634;-87
2023/08/27 03:58:07;;;;;;;10.40;5.43;;;;;;;24.41;64.34;98681.44;4805259;29;20186;-88
2023/08/27 04:00:33;;;;;;;8.87;6.03;;;;;;;24.42;64.30;98675.06;4805904;29;20234;-87
2023/08/27 04:03:01;;;;;;;9.73;5.37;;;;;;;24.48;63.83;98678.84;4806258;29;20251;-87
2023/08/27 04:05:28;;;;;;;10.00;5.83;;;;;;;24.48;63.72;98679.69;4806115;29;20269;-87
2023/08/27 04:07:54;;;;;;;12.87;5.77;;;;;;;24.51;63.84;98681.16;4805790;29;20186;-88
2023/08/27 04:10:21;;;;;;;10.53;5.77;;;;;;;24.53;63.78;98681.84;4790399;29;20182;-87
2023/08/27 04:12:47;;;;;;;11.63;5.47;;;;;;;24.50;64.30;98677.69;4805972;29;20179;-87
2023/08/27 04:15:14;;;;;;;15.90;5.77;;;;;;;24.51;64.27;98690.06;4805980;29;20668;-88
2023/08/27 04:17:41;;;;;;;13.50;5.83;;;;;;;24.53;64.49;98693.38;4806487;29;20201;-88
2023/08/27 04:20:08;;;;;;;12.63;6.10;;;;;;;24.57;64.35;98694.69;4806062;29;20182;-87
2023/08/27 04:22:35;;;;;;;8.10;5.37;;;;;;;24.58;64.61;98688.31;4805881;29;20677;-88
2023/08/27 04:25:02;;;;;;;15.03;6.30;;;;;;;24.59;64.94;98691.81;4805884;29;20182;-88
2023/08/27 04:27:29;;;;;;;12.00;5.50;;;;;;;24.67;64.52;98697.97;4806390;29;20186;-87
2023/08/27 04:29:55;;;;;;;8.70;5.30;;;;;;;24.73;64.42;98683.84;4805838;29;20579;-88
2023/08/27 04:32:22;;;;;;;11.60;5.93;;;;;;;24.81;64.33;98681.13;4789823;29;20182;-87
2023/08/27 04:34:49;;;;;;;9.90;6.40;;;;;;;24.87;64.21;98680.38;4805810;29;20182;-88
2023/08/27 04:37:14;;;;;;;10.83;6.13;;;;;;;24.94;64.20;98691.22;4806034;29;20211;-88
2023/08/27 04:39:41;;;;;;;11.10;6.07;;;;;;;24.96;65.60;98690.03;4806299;29;20220;-88
2023/08/27 04:42:06;;;;;;;10.30;5.63;;;;;;;24.98;66.02;98688.00;4805793;29;20649;-88
2023/08/27 04:44:31;;;;;;;10.50;6.07;;;;;;;25.07;66.01;98690.59;4805608;29;20329;-88
2023/08/27 04:47:00;;;;;;;10.47;5.93;;;;;;;25.17;65.86;98693.84;4808929;29;20228;-87
2023/08/27 04:49:27;;;;;;;14.43;7.10;;;;;;;25.25;66.78;98689.22;4809413;29;20290;-87
2023/08/27 04:51:53;;;;;;;11.57;6.97;;;;;;;25.32;67.47;98681.25;4809103;29;20187;-87
2023/08/27 04:54:20;;;;;;;14.13;6.73;;;;;;;25.42;67.21;98690.69;4808626;29;20269;-87
2023/08/27 04:56:46;;;;;;;10.43;6.50;;;;;;;25.51;67.48;98688.78;4809002;29;20186;-88
2023/08/27 04:59:13;;;;;;;11.20;6.60;;;;;;;25.65;67.52;98696.00;4808982;29;20281;-87
2023/08/27 05:01:39;;;;;;;14.43;7.93;;;;;;;25.77;67.78;98697.19;4808954;29;20252;-87
2023/08/27 05:04:05;;;;;;;10.47;6.87;;;;;;;25.90;67.87;98697.34;4808894;29;20218;-87
2023/08/27 05:06:31;;;;;;;10.13;6.30;;;;;;;26.12;69.19;98687.47;4809384;29;20186;-87
2023/08/27 05:08:57;;;;;;;8.27;5.40;;;;;;;26.20;69.97;98696.28;4808775;29;20183;-87
2023/08/27 05:11:24;;;;;;;11.83;5.17;;;;;;;26.27;69.63;98696.34;4808965;29;20187;-86
2023/08/27 05:13:51;;;;;;;11.43;4.40;;;;;;;26.32;69.78;98699.31;4809268;29;20197;-87
2023/08/27 05:16:16;;;;;;;13.00;6.43;;;;;;;26.41;70.38;98703.53;4808465;29;20195;-87
2023/08/27 05:18:43;;;;;;;15.33;6.20;;;;;;;26.43;70.04;98708.72;4808460;29;20201;-87
2023/08/27 05:21:10;;;;;;;10.67;4.57;;;;;;;26.54;69.82;98705.53;4807594;29;20198;-87
2023/08/27 05:23:37;;;;;;;6.73;4.27;;;;;;;26.61;69.76;98704.56;4806905;29;20224;-87
2023/08/27 05:26:05;;;;;;;8.17;4.80;;;;;;;26.76;68.99;98701.78;4807176;29;20248;-88
2023/08/27 05:28:31;;;;;;;7.17;4.70;;;;;;;26.89;68.69;98698.44;4807141;29;20187;-88
2023/08/27 05:30:58;;;;;;;11.10;5.20;;;;;;;26.99;68.20;98701.59;4807341;29;20338;-87
2023/08/27 05:33:25;;;;;;;10.87;5.17;;;;;;;27.07;67.15;98699.59;4807655;29;20243;-85
2023/08/27 05:35:54;;;;;;;13.13;6.83;;;;;;;27.03;67.49;98695.63;4807917;29;20197;-87
2023/08/27 05:38:21;;;;;;;14.50;7.87;;;;;;;27.07;67.73;98702.28;4808724;29;20281;-87
2023/08/27 05:40:50;;;;;;;15.47;7.00;;;;;;;27.09;68.10;98711.00;4806378;29;20194;-87
2023/08/27 05:43:15;;;;;;;15.37;7.07;;;;;;;27.12;67.62;98710.59;4796765;29;20222;-86
2023/08/27 05:45:41;;;;;;;17.60;7.10;;;;;;;27.25;67.16;98705.28;4801403;29;20502;-87
2023/08/27 05:48:06;;;;;;;22.83;9.57;;;;;;;27.41;65.79;98707.72;4797364;29;20202;-87
2023/08/27 05:50:36;;;;;;;19.13;9.63;;;;;;;27.50;66.04;98707.56;4801559;29;20276;-87
2023/08/27 05:53:02;;;;;;;26.40;9.93;;;;;;;27.62;66.08;98703.28;4801629;29;20273;-88
2023/08/27 05:55:28;;;;;;;22.87;9.80;;;;;;;27.71;66.38;98708.31;4778991;29;20191;-87
2023/08/27 05:57:53;;;;;;;26.33;10.10;;;;;;;27.87;65.55;98712.50;4796667;29;20626;-88
2023/08/27 06:00:20;;;;;;;20.50;9.45;;;;;;;28.12;65.11;98721.75;4784732;29;20273;-87
2023/08/27 06:02:45;;;;;;;29.37;12.47;;;;;;;28.33;64.43;98713.53;4799387;29;20248;-87
2023/08/27 06:05:11;;;;;;;26.83;12.57;;;;;;;28.52;64.17;98722.69;4791393;29;20190;-88
2023/08/27 06:07:37;;;;;;;40.67;16.88;;;;;;;28.66;63.92;98710.94;4807463;29;20263;-88
2023/08/27 06:10:05;;;;;;;43.90;16.85;;;;;;;28.74;64.23;98709.91;4807463;29;20222;-87
2023/08/27 06:12:32;;;;;;;38.25;16.60;;;;;;;28.99;63.76;98713.63;4807719;29;20179;-87
2023/08/27 06:14:58;;;;;;;22.80;11.15;;;;;;;29.23;61.62;98721.97;4807964;29;20174;-87
2023/08/27 06:17:25;;;;;;;21.00;10.18;;;;;;;29.40;61.44;98716.13;4807864;29;20206;-88
2023/08/27 06:19:50;;;;;;;17.85;9.15;;;;;;;29.59;60.72;98721.47;4807860;29;20622;-87
2023/08/27 06:22:16;;;;;;;19.08;8.30;;;;;;;29.72;61.07;98716.03;4807442;29;20217;-88
2023/08/27 06:24:43;;;;;;;19.30;8.60;;;;;;;30.05;61.30;98710.56;4791576;29;20551;-87
2023/08/27 06:27:09;;;;;;;18.63;9.38;;;;;;;30.48;58.81;98715.34;4786816;30;20280;-87
2023/08/27 06:29:36;;;;;;;17.58;8.60;;;;;;;30.81;57.35;98716.78;4790795;29;20646;-87
2023/08/27 06:32:02;;;;;;;19.92;7.65;;;;;;;31.19;55.65;98724.78;4789005;29;20270;-88
2023/08/27 06:34:29;;;;;;;15.23;6.90;;;;;;;31.39;54.23;98713.78;4805078;29;20218;-88
2023/08/27 06:36:54;;;;;;;15.45;7.97;;;;;;;31.67;53.82;98711.44;4807170;29;20187;-87
2023/08/27 06:39:21;;;;;;;14.93;7.57;;;;;;;31.85;52.33;98700.56;4807217;29;20664;-88
2023/08/27 06:41:48;;;;;;;14.38;7.10;;;;;;;32.01;53.59;98705.41;4807092;29;20202;-90
2023/08/27 06:44:13;;;;;;;19.52;8.07;;;;;;;32.02;53.81;98709.75;4800514;29;20245;-88
2023/08/27 06:46:39;;;;;;;14.93;6.80;;;;;;;32.28;53.82;98713.19;4789616;30;20192;-88
2023/08/27 06:49:05;;;;;;;10.73;6.35;;;;;;;32.39;51.60;98707.00;4789120;30;20266;-88
2023/08/27 06:51:31;;;;;;;9.60;6.57;;;;;;;32.54;50.71;98707.44;4789032;30;20179;-88
2023/08/27 06:53:58;;;;;;;13.07;7.00;;;;;;;32.68;50.82;98701.56;4789288;30;20260;-88
2023/08/27 06:56:26;;;;;;;16.27;7.03;;;;;;;32.85;49.69;98709.03;4789224;30;20266;-88
2023/08/27 06:58:53;;;;;;;12.57;6.90;;;;;;;33.04;50.23;98703.31;4806114;29;20190;-88
2023/08/27 07:01:18;;;;;;;11.73;6.30;;;;;;;33.30;47.69;98693.88;4793473;29;20182;-88
2023/08/27 07:03:44;;;;;;;13.05;7.30;;;;;;;33.50;47.69;98690.75;4772781;29;20191;-88
2023/08/27 07:06:10;;;;;;;15.38;7.97;;;;;;;33.75;46.40;98685.94;4788757;30;20638;-88
2023/08/27 07:08:37;;;;;;;11.65;7.22;;;;;;;34.00;47.46;98694.59;4796276;29;20269;-88
2023/08/27 07:11:05;;;;;;;13.63;6.82;;;;;;;34.22;46.03;98700.22;4790679;29;20182;-88
2023/08/27 07:13:31;;;;;;;9.48;5.63;;;;;;;34.22;43.44;98695.63;4790670;29;20182;-88
2023/08/27 07:15:58;;;;;;;9.68;5.90;;;;;;;34.27;42.83;98703.88;4790953;29;20194;-89
2023/08/27 07:18:24;;;;;;;8.30;4.97;;;;;;;34.28;42.02;98694.63;4805603;29;20190;-88
2023/08/27 07:20:51;;;;;;;10.60;5.90;;;;;;;34.39;43.86;98691.03;4790713;29;20194;-88
2023/08/27 07:23:17;;;;;;;9.60;5.47;;;;;;;34.49;42.08;98693.94;4798148;29;20219;-90
2023/08/27 07:25:43;;;;;;;7.60;4.00;;;;;;;34.52;42.15;98690.72;4787093;30;20190;-87
2023/08/27 07:28:10;;;;;;;6.55;4.07;;;;;;;34.58;41.97;98688.97;4800060;29;20186;-88
2023/08/27 07:30:37;;;;;;;6.20;4.00;;;;;;;34.81;41.88;98693.41;4790433;29;20197;-88
2023/08/27 07:33:06;;;;;;;6.05;3.45;;;;;;;34.88;39.38;98688.66;4797019;29;20290;-88
2023/08/27 07:35:32;;;;;;;5.40;3.20;;;;;;;34.88;40.40;98694.91;4793694;29;20274;-88
2023/08/27 07:37:58;;;;;;;6.63;3.15;;;;;;;35.06;39.98;98688.44;4788287;30;20269;-90
2023/08/27 07:40:24;;;;;;;4.97;2.60;;;;;;;34.82;40.01;98686.91;4802808;29;20205;-89
2023/08/27 07:42:50;;;;;;;5.78;2.60;;;;;;;34.94;38.56;98683.03;4790007;29;20202;-91
2023/08/27 07:45:16;;;;;;;5.53;2.30;;;;;;;35.15;38.59;98689.66;4806038;29;20699;-89
2023/08/27 07:47:42;;;;;;;5.40;2.28;;;;;;;35.32;36.57;98685.03;4790181;29;20201;-90
2023/08/27 07:50:09;;;;;;;5.40;2.35;;;;;;;35.37;38.24;98681.53;4806194;29;20175;-89
2023/08/27 07:52:36;;;;;;;3.67;2.05;;;;;;;35.61;36.16;98677.53;4806289;29;20175;-85
2023/08/27 07:55:03;;;;;;;5.68;2.95;;;;;;;35.66;37.78;98681.16;4789863;29;20178;-86
2023/08/27 07:57:30;;;;;;;3.83;2.33;;;;;;;35.76;37.93;98675.84;4805931;29;20243;-86
2023/08/27 07:59:57;;;;;;;4.70;2.25;;;;;;;35.76;37.41;98675.84;4789968;29;20182;-86
2023/08/27 08:02:23;;;;;;;4.70;2.70;;;;;;;35.76;35.96;98664.09;4806184;29;20210;-85
2023/08/27 08:04:50;;;;;;;6.35;1.95;;;;;;;35.65;35.89;98662.31;4806173;29;20187;-86
2023/08/27 08:07:17;;;;;;;6.78;1.80;;;;;;;35.57;35.49;98666.31;4806096;29;20193;-86
2023/08/27 08:09:44;;;;;;;5.95;2.33;;;;;;;35.55;36.53;98657.56;4789918;29;20262;-86
2023/08/27 08:12:10;;;;;;;5.55;2.58;;;;;;;35.76;34.98;98651.28;4805652;29;20197;-86
2023/08/27 08:14:37;;;;;;;5.80;2.50;;;;;;;35.97;34.04;98659.69;4805627;29;20186;-85
2023/08/27 08:17:04;;;;;;;4.55;2.20;;;;;;;36.01;35.38;98658.16;4805761;29;20529;-87
2023/08/27 08:19:31;;;;;;;9.07;2.97;;;;;;;36.14;35.25;98660.50;4805812;29;20188;-86
2023/08/27 08:21:56;;;;;;;5.25;2.40;;;;;;;36.06;36.35;98664.47;4809317;29;20359;-86
2023/08/27 08:24:23;;;;;;;7.07;2.92;;;;;;;36.15;34.29;98648.47;4809323;29;20306;-87
2023/08/27 08:26:52;;;;;;;8.00;2.60;;;;;;;35.89;34.75;98646.50;4807135;29;20197;-87
2023/08/27 08:29:20;;;;;;;6.57;2.35;;;;;;;36.10;35.31;98649.25;4793767;29;20190;-88
2023/08/27 08:31:47;;;;;;;5.97;2.78;;;;;;;36.20;35.18;98648.53;4791225;30;20198;-86
2023/08/27 08:34:14;;;;;;;6.22;2.30;;;;;;;36.35;33.59;98645.94;4775643;29;20551;-87
2023/08/27 08:36:41;;;;;;;4.07;2.25;;;;;;;36.46;33.07;98639.50;4805338;29;20190;-86
2023/08/27 08:39:07;;;;;;;6.32;2.47;;;;;;;36.67;31.80;98641.34;4791105;30;20216;-86
2023/08/27 08:41:39;;;;;;;7.53;2.53;;;;;;;36.81;32.61;98642.56;4789998;30;20619;-87
2023/08/27 08:44:12;;;;;;;8.95;3.60;;;;;;;36.77;31.92;98646.06;4799302;29;20245;-85
2023/08/27 08:46:41;;;;;;;14.88;4.13;;;;;;;36.85;33.18;98642.84;4809520;29;20166;-86
2023/08/27 08:49:15;;;;;;;7.53;2.70;;;;;;;36.98;30.41;98642.44;4808033;29;20186;-85
2023/08/27 08:51:42;;;;;;;5.18;2.45;;;;;;;36.81;31.50;98639.00;4809489;29;20172;-86
2023/08/27 08:54:12;;;;;;;5.75;2.88;;;;;;;36.46;32.90;98630.47;4807913;29;20198;-87
2023/08/27 08:56:44;;;;;;;6.75;2.88;;;;;;;36.22;32.82;98629.97;4808841;29;20213;-87
2023/08/27 08:59:10;;;;;;;6.68;2.85;;;;;;;36.30;32.42;98632.25;4807754;29;20178;-87
2023/08/27 09:01:38;;;;;;;8.77;2.45;;;;;;;36.48;34.23;98623.69;4807673;29;20612;-85
2023/08/27 09:04:06;;;;;;;5.30;2.35;;;;;;;36.69;32.23;98631.00;4808570;29;20191;-86
2023/08/27 09:06:36;;;;;;;8.15;2.70;;;;;;;36.53;31.65;98618.28;4808738;29;20178;-88
2023/08/27 09:09:01;;;;;;;5.25;1.98;;;;;;;36.35;32.68;98619.47;4808605;29;20251;-86
2023/08/27 09:11:30;;;;;;;5.18;2.83;;;;;;;36.61;32.93;98608.81;4808406;29;20545;-86
2023/08/27 09:13:57;;;;;;;9.00;3.00;;;;;;;36.88;32.42;98602.19;4808509;29;20185;-85
2023/08/27 09:16:22;;;;;;;6.03;2.65;;;;;;;36.74;32.75;98611.09;4808758;29;20316;-85
2023/08/27 09:18:49;;;;;;;4.13;2.38;;;;;;;36.83;31.93;98596.69;4808506;29;20190;-86
2023/08/27 09:21:16;;;;;;;4.65;2.28;;;;;;;36.90;30.98;98599.19;4808524;29;20198;-86
2023/08/27 09:23:41;;;;;;;4.90;1.80;;;;;;;37.00;30.43;98602.03;4776469;30;20223;-85
2023/08/27 09:26:08;;;;;;;3.47;1.85;;;;;;;37.02;28.91;98599.03;4804458;29;20634;-86
2023/08/27 09:28:35;;;;;;;4.65;2.03;;;;;;;37.10;29.99;98595.78;4802916;29;20259;-85
2023/08/27 09:31:02;;;;;;;4.63;1.98;;;;;;;37.41;29.46;98611.28;4792324;29;20262;-89
2023/08/27 09:33:41;;;;;;;5.13;1.90;;;;;;;37.40;27.98;98599.53;4808297;29;20254;-88
2023/08/27 09:36:09;;;;;;;3.55;1.83;;;;;;;37.35;28.53;98598.66;4792285;29;20590;-87
2023/08/27 09:38:35;;;;;;;5.80;2.17;;;;;;;37.36;29.93;98597.56;4808136;29;20185;-85
2023/08/27 09:41:12;;;;;;;6.15;2.45;;;;;;;37.40;29.28;98594.06;4808070;29;20247;-86
2023/08/27 09:43:38;;;;;;;4.20;2.00;;;;;;;37.58;28.08;98595.50;4807828;29;20206;-85
2023/08/27 09:46:10;;;;;;;5.22;2.22;;;;;;;37.69;29.55;98585.41;4808221;29;20251;-86
2023/08/27 09:48:36;;;;;;;4.88;2.35;;;;;;;37.67;28.48;98577.50;4807010;29;20213;-86
2023/08/27 09:51:06;;;;;;;3.78;1.70;;;;;;;37.66;29.10;98580.50;4792030;29;20194;-85
2023/08/27 09:53:32;;;;;;;7.68;2.50;;;;;;;37.76;27.78;98581.34;4807882;29;20183;-86
2023/08/27 09:55:58;;;;;;;4.72;2.00;;;;;;;37.81;28.18;98578.63;4807778;29;20239;-86
2023/08/27 09:58:28;;;;;;;5.25;2.22;;;;;;;37.94;28.11;98575.41;4807823;29;20182;-85
2023/08/27 10:01:00;;;;;;;4.55;2.08;;;;;;;37.97;28.98;98574.84;4807959;29;20658;-86
2023/08/27 10:03:29;;;;;;;5.05;2.13;;;;;;;37.97;28.71;98571.31;4789879;30;20290;-87
2023/08/27 10:05:56;;;;;;;10.27;1.88;;;;;;;37.88;28.36;98565.53;4797574;29;20190;-86
2023/08/27 10:08:22;;;;;;;6.97;2.50;;;;;;;38.06;28.28;98562.28;4807880;29;20201;-87
2023/08/27 10:10:47;;;;;;;3.53;1.90;;;;;;;38.14;28.24;98563.66;4807673;29;20190;-86
2023/08/27 10:13:19;;;;;;;4.57;2.05;;;;;;;38.21;27.49;98555.19;4807825;29;20187;-86
2023/08/27 10:15:46;;;;;;;4.53;1.92;;;;;;;38.39;26.72;98547.28;4799970;29;20190;-86
2023/08/27 10:18:16;;;;;;;3.72;2.05;;;;;;;38.07;26.12;98544.78;4808088;29;20183;-87
2023/08/27 10:20:42;;;;;;;4.18;1.92;;;;;;;38.22;27.12;98540.38;4791492;29;20186;-85
2023/08/27 10:23:10;;;;;;;4.57;1.90;;;;;;;38.46;27.18;98544.25;4807261;29;20680;-86
2023/08/27 10:25:37;;;;;;;6.65;1.95;;;;;;;38.44;25.60;98533.59;4806634;29;20190;-87
2023/08/27 10:28:06;;;;;;;3.80;1.70;;;;;;;38.35;27.20;98537.97;4795346;29;20251;-87
2023/08/27 10:30:35;;;;;;;3.30;1.40;;;;;;;37.78;26.11;98527.19;4804786;29;20277;-85
2023/08/27 10:33:03;;;;;;;3.45;1.67;;;;;;;38.13;25.66;98540.94;4800314;29;20706;-86
2023/08/27 10:35:34;;;;;;;4.07;2.00;;;;;;;38.35;26.72;98528.91;4807228;29;20194;-89
2023/08/27 10:38:02;;;;;;;5.30;1.85;;;;;;;38.13;26.61;98527.25;4797163;29;20243;-86
2023/08/27 10:40:29;;;;;;;3.33;1.50;;;;;;;38.38;25.79;98528.38;4788970;29;20199;-85
2023/08/27 10:43:08;;;;;;;4.72;2.08;;;;;;;38.60;25.13;98517.97;4790756;29;20202;-85
2023/08/27 10:45:40;;;;;;;4.22;1.20;;;;;;;38.59;23.60;98530.00;4791194;29;20300;-86
2023/08/27 10:48:26;;;;;;;2.25;1.13;;;;;;;38.24;21.92;98522.59;4788825;30;20194;-88
2023/08/27 10:51:12;;;;;;;2.05;0.90;;;;;;;38.29;22.19;98521.78;4789411;30;20198;-86
2023/08/27 10:53:49;;;;;;;2.92;0.90;;;;;;;38.29;21.82;98530.00;4773071;30;20667;-88
2023/08/27 10:56:36;;;;;;;3.72;1.10;;;;;;;38.55;21.28;98517.97;4789183;30;20179;-85
2023/08/27 10:59:26;;;;;;;2.22;0.93;;;;;;;38.60;21.21;98526.19;4789327;30;20179;-86
2023/08/27 11:01:54;;;;;;;3.33;1.15;;;;;;;38.37;21.83;98515.78;4788846;30;20207;-86
2023/08/27 11:04:20;;;;;;;1.35;0.77;;;;;;;38.73;21.53;98503.69;4793808;29;20629;-86
2023/08/27 11:06:51;;;;;;;2.13;1.08;;;;;;;38.77;21.55;98507.53;4807154;29;20182;-86
2023/08/27 11:09:20;;;;;;;2.05;1.00;;;;;;;38.94;22.35;98507.22;4794200;29;20190;-86
2023/08/27 11:11:59;;;;;;;2.75;1.05;;;;;;;39.01;21.10;98505.00;4805233;29;20209;-88
2023/08/27 11:14:26;;;;;;;2.38;0.90;;;;;;;39.03;20.69;98497.31;4805334;29;20635;-86
2023/08/27 11:16:58;;;;;;;2.92;0.98;;;;;;;39.15;21.22;98493.13;4806004;29;20201;-87
2023/08/27 11:19:37;;;;;;;2.05;0.82;;;;;;;38.87;21.59;98493.78;4806107;29;20198;-87
2023/08/27 11:22:10;;;;;;;4.10;1.20;;;;;;;38.99;21.87;98488.00;4806018;29;20304;-88
2023/08/27 11:24:42;;;;;;;2.47;1.38;;;;;;;39.29;21.78;98482.41;4805170;29;20259;-86
2023/08/27 11:27:08;;;;;;;2.22;1.08;;;;;;;39.26;20.95;98483.81;4805917;29;20190;-87
2023/08/27 11:29:39;;;;;;;2.28;0.90;;;;;;;39.27;21.87;98481.88;4790235;29;20614;-86
2023/08/27 11:32:10;;;;;;;2.13;0.95;;;;;;;39.43;21.45;98475.22;4805824;29;20186;-86